sensor_id;sensor_type;location;lat;lon;timestamp;P1;durP1;ratioP1;P2;durP2;ratioP2
10088;SDS011;51898;49.864;8.550;2023-11-21T00:02:46;4.83;;;3.07;;
10088;SDS011;51898;49.864;8.550;2023-11-21T00:05:48;8.47;;;3.57;;
10088;SDS011;51898;49.864;8.550;2023-11-21T00:08:50;5.50;;;3.10;;
10088;SDS011;51898;49.864;8.550;2023-11-21T00:11:51;7.77;;;3.83;;
10088;SDS011;51898;49.864;8.550;2023-11-21T00:14:53;5.67;;;3.23;;
10088;SDS011;51898;49.864;8.550;2023-11-21T00:17:59;7.10;;;3.87;;
10088;SDS011;51898;49.864;8.550;2023-11-21T00:21:01;7.17;;;3.60;;
10088;SDS011;51898;49.864;8.550;2023-11-21T00:24:04;8.20;;;3.50;;
10088;SDS011;51898;49.864;8.550;2023-11-21T00:27:06;5.80;;;3.50;;
10088;SDS011;51898;49.864;8.550;2023-11-21T00:30:08;7.90;;;4.00;;
10088;SDS011;51898;49.864;8.550;2023-11-21T00:33:10;13.07;;;4.47;;
10088;SDS011;51898;49.864;8.550;2023-11-21T00:36:12;9.77;;;4.60;;
10088;SDS011;51898;49.864;8.550;2023-11-21T00:39:19;8.83;;;4.43;;
10088;SDS011;51898;49.864;8.550;2023-11-21T00:42:20;6.00;;;4.07;;
10088;SDS011;51898;49.864;8.550;2023-11-21T00:45:22;9.03;;;4.80;;
10088;SDS011;51898;49.864;8.550;2023-11-21T00:48:24;13.20;;;5.30;;
10088;SDS011;51898;49.864;8.550;2023-11-21T00:51:26;8.27;;;4.90;;
10088;SDS011;51898;49.864;8.550;2023-11-21T00:54:28;12.57;;;5.20;;
10088;SDS011;51898;49.864;8.550;2023-11-21T00:57:31;7.90;;;4.23;;
10088;SDS011;51898;49.864;8.550;2023-11-21T01:00:33;8.20;;;4.20;;
10088;SDS011;51898;49.864;8.550;2023-11-21T01:03:35;7.80;;;4.47;;
10088;SDS011;51898;49.864;8.550;2023-11-21T01:06:36;8.60;;;4.67;;
10088;SDS011;51898;49.864;8.550;2023-11-21T01:09:38;7.97;;;5.03;;
10088;SDS011;51898;49.864;8.550;2023-11-21T01:12:40;10.67;;;5.40;;
10088;SDS011;51898;49.864;8.550;2023-11-21T01:15:42;9.53;;;4.80;;
10088;SDS011;51898;49.864;8.550;2023-11-21T01:18:44;7.07;;;5.20;;
10088;SDS011;51898;49.864;8.550;2023-11-21T01:21:46;10.00;;;5.37;;
10088;SDS011;51898;49.864;8.550;2023-11-21T01:24:48;10.67;;;5.73;;
10088;SDS011;51898;49.864;8.550;2023-11-21T01:27:49;11.13;;;6.37;;
10088;SDS011;51898;49.864;8.550;2023-11-21T01:30:51;10.73;;;6.37;;
10088;SDS011;51898;49.864;8.550;2023-11-21T01:33:54;14.07;;;6.17;;
10088;SDS011;51898;49.864;8.550;2023-11-21T01:36:56;10.10;;;5.90;;
10088;SDS011;51898;49.864;8.550;2023-11-21T01:39:58;14.60;;;6.50;;
10088;SDS011;51898;49.864;8.550;2023-11-21T01:43:02;12.10;;;6.67;;
10088;SDS011;51898;49.864;8.550;2023-11-21T01:46:08;8.47;;;6.30;;
10088;SDS011;51898;49.864;8.550;2023-11-21T01:49:10;7.20;;;5.50;;
10088;SDS011;51898;49.864;8.550;2023-11-21T01:52:14;14.70;;;6.20;;
10088;SDS011;51898;49.864;8.550;2023-11-21T01:55:16;14.50;;;6.30;;
10088;SDS011;51898;49.864;8.550;2023-11-21T01:58:30;10.10;;;6.13;;
10088;SDS011;51898;49.864;8.550;2023-11-21T02:01:33;13.70;;;6.57;;
10088;SDS011;51898;49.864;8.550;2023-11-21T02:04:36;13.87;;;6.20;;
10088;SDS011;51898;49.864;8.550;2023-11-21T02:07:38;12.30;;;5.90;;
10088;SDS011;51898;49.864;8.550;2023-11-21T02:10:40;11.70;;;6.70;;
10088;SDS011;51898;49.864;8.550;2023-11-21T02:13:42;13.00;;;6.00;;
10088;SDS011;51898;49.864;8.550;2023-11-21T02:16:44;11.77;;;6.20;;
10088;SDS011;51898;49.864;8.550;2023-11-21T02:19:48;12.13;;;6.53;;
10088;SDS011;51898;49.864;8.550;2023-11-21T02:22:55;16.77;;;6.23;;
10088;SDS011;51898;49.864;8.550;2023-11-21T02:26:02;11.90;;;6.27;;
10088;SDS011;51898;49.864;8.550;2023-11-21T02:29:05;12.30;;;7.20;;
10088;SDS011;51898;49.864;8.550;2023-11-21T02:32:07;9.73;;;6.03;;
10088;SDS011;51898;49.864;8.550;2023-11-21T02:35:11;9.20;;;6.07;;
10088;SDS011;51898;49.864;8.550;2023-11-21T02:38:13;11.80;;;5.90;;
10088;SDS011;51898;49.864;8.550;2023-11-21T02:41:16;18.77;;;6.97;;
10088;SDS011;51898;49.864;8.550;2023-11-21T02:44:18;10.57;;;6.33;;
10088;SDS011;51898;49.864;8.550;2023-11-21T02:47:20;10.70;;;5.80;;
10088;SDS011;51898;49.864;8.550;2023-11-21T02:50:22;12.33;;;6.03;;
10088;SDS011;51898;49.864;8.550;2023-11-21T02:53:24;7.07;;;5.43;;
10088;SDS011;51898;49.864;8.550;2023-11-21T02:56:25;15.23;;;6.53;;
10088;SDS011;51898;49.864;8.550;2023-11-21T02:59:30;14.37;;;6.93;;
10088;SDS011;51898;49.864;8.550;2023-11-21T03:02:31;9.83;;;6.13;;
10088;SDS011;51898;49.864;8.550;2023-11-21T03:05:33;9.77;;;6.00;;
10088;SDS011;51898;49.864;8.550;2023-11-21T03:08:36;11.50;;;6.43;;
10088;SDS011;51898;49.864;8.550;2023-11-21T03:11:38;16.87;;;6.70;;
10088;SDS011;51898;49.864;8.550;2023-11-21T03:14:40;11.10;;;6.33;;
10088;SDS011;51898;49.864;8.550;2023-11-21T03:17:41;13.13;;;6.47;;
10088;SDS011;51898;49.864;8.550;2023-11-21T03:20:43;14.70;;;7.13;;
10088;SDS011;51898;49.864;8.550;2023-11-21T03:23:47;16.53;;;6.80;;
10088;SDS011;51898;49.864;8.550;2023-11-21T03:26:49;12.10;;;6.47;;
10088;SDS011;51898;49.864;8.550;2023-11-21T03:29:52;10.73;;;6.23;;
10088;SDS011;51898;49.864;8.550;2023-11-21T03:32:53;11.83;;;6.67;;
10088;SDS011;51898;49.864;8.550;2023-11-21T03:35:55;10.50;;;6.37;;
10088;SDS011;51898;49.864;8.550;2023-11-21T03:38:57;9.80;;;5.87;;
10088;SDS011;51898;49.864;8.550;2023-11-21T03:41:59;13.37;;;6.80;;
10088;SDS011;51898;49.864;8.550;2023-11-21T03:45:01;13.03;;;6.70;;
10088;SDS011;51898;49.864;8.550;2023-11-21T03:48:04;17.87;;;6.73;;
10088;SDS011;51898;49.864;8.550;2023-11-21T03:51:08;10.50;;;6.37;;
10088;SDS011;51898;49.864;8.550;2023-11-21T03:54:10;14.83;;;6.83;;
10088;SDS011;51898;49.864;8.550;2023-11-21T03:57:12;10.77;;;6.93;;
10088;SDS011;51898;49.864;8.550;2023-11-21T04:00:14;12.40;;;7.10;;
10088;SDS011;51898;49.864;8.550;2023-11-21T04:03:17;14.10;;;7.40;;
10088;SDS011;51898;49.864;8.550;2023-11-21T04:06:19;12.93;;;7.13;;
10088;SDS011;51898;49.864;8.550;2023-11-21T04:09:20;15.47;;;7.40;;
10088;SDS011;51898;49.864;8.550;2023-11-21T04:12:25;18.63;;;7.50;;
10088;SDS011;51898;49.864;8.550;2023-11-21T04:15:26;16.57;;;9.43;;
10088;SDS011;51898;49.864;8.550;2023-11-21T04:18:28;14.40;;;8.80;;
10088;SDS011;51898;49.864;8.550;2023-11-21T04:21:30;15.23;;;9.40;;
10088;SDS011;51898;49.864;8.550;2023-11-21T04:24:31;14.97;;;8.57;;
10088;SDS011;51898;49.864;8.550;2023-11-21T04:27:33;17.17;;;9.40;;
10088;SDS011;51898;49.864;8.550;2023-11-21T04:30:35;19.30;;;10.27;;
10088;SDS011;51898;49.864;8.550;2023-11-21T04:33:37;15.10;;;9.57;;
10088;SDS011;51898;49.864;8.550;2023-11-21T04:36:39;16.40;;;10.87;;
10088;SDS011;51898;49.864;8.550;2023-11-21T04:39:41;14.53;;;10.37;;
10088;SDS011;51898;49.864;8.550;2023-11-21T04:42:42;14.97;;;8.90;;
10088;SDS011;51898;49.864;8.550;2023-11-21T04:45:44;15.57;;;11.33;;
10088;SDS011;51898;49.864;8.550;2023-11-21T04:48:46;20.50;;;10.80;;
10088;SDS011;51898;49.864;8.550;2023-11-21T04:51:48;15.70;;;10.40;;
10088;SDS011;51898;49.864;8.550;2023-11-21T04:54:49;15.00;;;11.13;;
10088;SDS011;51898;49.864;8.550;2023-11-21T04:57:51;19.07;;;12.63;;
10088;SDS011;51898;49.864;8.550;2023-11-21T05:00:53;19.37;;;10.73;;
10088;SDS011;51898;49.864;8.550;2023-11-21T05:03:54;20.50;;;11.93;;
10088;SDS011;51898;49.864;8.550;2023-11-21T05:06:58;19.13;;;11.93;;
10088;SDS011;51898;49.864;8.550;2023-11-21T05:10:01;18.47;;;11.73;;
10088;SDS011;51898;49.864;8.550;2023-11-21T05:13:05;17.27;;;12.03;;
10088;SDS011;51898;49.864;8.550;2023-11-21T05:16:11;20.03;;;12.50;;
10088;SDS011;51898;49.864;8.550;2023-11-21T05:19:13;15.90;;;11.00;;
10088;SDS011;51898;49.864;8.550;2023-11-21T05:22:15;16.93;;;10.50;;
10088;SDS011;51898;49.864;8.550;2023-11-21T05:25:17;18.47;;;11.00;;
10088;SDS011;51898;49.864;8.550;2023-11-21T05:28:19;17.33;;;10.90;;
10088;SDS011;51898;49.864;8.550;2023-11-21T05:31:21;22.30;;;10.40;;
10088;SDS011;51898;49.864;8.550;2023-11-21T05:34:23;15.47;;;9.77;;
10088;SDS011;51898;49.864;8.550;2023-11-21T05:37:25;13.20;;;9.23;;
10088;SDS011;51898;49.864;8.550;2023-11-21T05:40:28;13.07;;;8.43;;
10088;SDS011;51898;49.864;8.550;2023-11-21T05:43:31;14.43;;;7.67;;
10088;SDS011;51898;49.864;8.550;2023-11-21T05:46:36;11.80;;;8.07;;
10088;SDS011;51898;49.864;8.550;2023-11-21T05:49:38;12.90;;;8.00;;
10088;SDS011;51898;49.864;8.550;2023-11-21T05:52:40;11.97;;;7.20;;
10088;SDS011;51898;49.864;8.550;2023-11-21T05:55:43;10.37;;;6.00;;
10088;SDS011;51898;49.864;8.550;2023-11-21T05:58:45;8.60;;;5.33;;
10088;SDS011;51898;49.864;8.550;2023-11-21T06:01:46;5.97;;;4.50;;
10088;SDS011;51898;49.864;8.550;2023-11-21T06:04:48;7.27;;;5.17;;
10088;SDS011;51898;49.864;8.550;2023-11-21T06:07:50;4.60;;;4.03;;
10088;SDS011;51898;49.864;8.550;2023-11-21T06:10:53;9.60;;;5.90;;
10088;SDS011;51898;49.864;8.550;2023-11-21T06:13:56;4.63;;;4.03;;
10088;SDS011;51898;49.864;8.550;2023-11-21T06:16:59;4.80;;;3.87;;
10088;SDS011;51898;49.864;8.550;2023-11-21T06:20:00;4.57;;;3.30;;
10088;SDS011;51898;49.864;8.550;2023-11-21T06:23:05;9.63;;;3.40;;
10088;SDS011;51898;49.864;8.550;2023-11-21T06:26:06;5.57;;;4.00;;
10088;SDS011;51898;49.864;8.550;2023-11-21T06:29:11;5.73;;;3.67;;
10088;SDS011;51898;49.864;8.550;2023-11-21T06:32:16;6.27;;;3.50;;
10088;SDS011;51898;49.864;8.550;2023-11-21T06:35:17;5.73;;;3.53;;
10088;SDS011;51898;49.864;8.550;2023-11-21T06:38:19;8.37;;;5.07;;
10088;SDS011;51898;49.864;8.550;2023-11-21T06:41:21;8.10;;;4.67;;
10088;SDS011;51898;49.864;8.550;2023-11-21T06:44:23;8.03;;;4.70;;
10088;SDS011;51898;49.864;8.550;2023-11-21T06:47:25;14.20;;;10.10;;
10088;SDS011;51898;49.864;8.550;2023-11-21T06:50:27;10.07;;;5.47;;
10088;SDS011;51898;49.864;8.550;2023-11-21T06:53:29;9.10;;;5.10;;
10088;SDS011;51898;49.864;8.550;2023-11-21T06:56:30;9.60;;;6.72;;
10088;SDS011;51898;49.864;8.550;2023-11-21T06:59:32;8.33;;;5.27;;
10088;SDS011;51898;49.864;8.550;2023-11-21T07:02:34;7.67;;;5.37;;
10088;SDS011;51898;49.864;8.550;2023-11-21T07:05:36;8.37;;;5.43;;
10088;SDS011;51898;49.864;8.550;2023-11-21T07:08:38;9.90;;;6.20;;
10088;SDS011;51898;49.864;8.550;2023-11-21T07:11:40;9.50;;;5.60;;
10088;SDS011;51898;49.864;8.550;2023-11-21T07:14:44;8.90;;;5.30;;
10088;SDS011;51898;49.864;8.550;2023-11-21T07:17:46;9.70;;;6.60;;
10088;SDS011;51898;49.864;8.550;2023-11-21T07:20:49;12.90;;;6.60;;
10088;SDS011;51898;49.864;8.550;2023-11-21T07:23:51;8.10;;;5.70;;
10088;SDS011;51898;49.864;8.550;2023-11-21T07:26:53;17.67;;;8.57;;
10088;SDS011;51898;49.864;8.550;2023-11-21T07:29:58;10.03;;;6.83;;
10088;SDS011;51898;49.864;8.550;2023-11-21T07:32:59;14.70;;;7.67;;
10088;SDS011;51898;49.864;8.550;2023-11-21T07:36:01;11.97;;;7.00;;
10088;SDS011;51898;49.864;8.550;2023-11-21T07:39:03;15.70;;;7.93;;
10088;SDS011;51898;49.864;8.550;2023-11-21T07:42:04;14.20;;;7.43;;
10088;SDS011;51898;49.864;8.550;2023-11-21T07:45:06;13.80;;;8.10;;
10088;SDS011;51898;49.864;8.550;2023-11-21T07:48:08;21.80;;;11.37;;
10088;SDS011;51898;49.864;8.550;2023-11-21T07:51:10;18.37;;;8.97;;
10088;SDS011;51898;49.864;8.550;2023-11-21T07:54:12;16.07;;;9.17;;
10088;SDS011;51898;49.864;8.550;2023-11-21T07:57:13;14.10;;;8.13;;
10088;SDS011;51898;49.864;8.550;2023-11-21T08:00:15;14.60;;;8.10;;
10088;SDS011;51898;49.864;8.550;2023-11-21T08:03:17;15.73;;;9.40;;
10088;SDS011;51898;49.864;8.550;2023-11-21T08:06:19;19.53;;;9.03;;
10088;SDS011;51898;49.864;8.550;2023-11-21T08:09:21;18.30;;;8.57;;
10088;SDS011;51898;49.864;8.550;2023-11-21T08:12:24;19.60;;;9.17;;
10088;SDS011;51898;49.864;8.550;2023-11-21T08:15:28;20.80;;;10.40;;
10088;SDS011;51898;49.864;8.550;2023-11-21T08:18:33;18.23;;;10.67;;
10088;SDS011;51898;49.864;8.550;2023-11-21T08:21:35;19.93;;;10.20;;
10088;SDS011;51898;49.864;8.550;2023-11-21T08:24:38;21.07;;;10.20;;
10088;SDS011;51898;49.864;8.550;2023-11-21T08:27:40;23.77;;;11.00;;
10088;SDS011;51898;49.864;8.550;2023-11-21T08:30:42;16.20;;;9.53;;
10088;SDS011;51898;49.864;8.550;2023-11-21T08:33:43;17.47;;;9.47;;
10088;SDS011;51898;49.864;8.550;2023-11-21T08:36:45;14.40;;;9.17;;
10088;SDS011;51898;49.864;8.550;2023-11-21T08:39:47;16.30;;;9.20;;
10088;SDS011;51898;49.864;8.550;2023-11-21T08:42:54;16.13;;;8.50;;
10088;SDS011;51898;49.864;8.550;2023-11-21T08:45:55;13.50;;;8.27;;
10088;SDS011;51898;49.864;8.550;2023-11-21T08:48:57;14.90;;;7.70;;
10088;SDS011;51898;49.864;8.550;2023-11-21T08:51:59;15.47;;;7.30;;
10088;SDS011;51898;49.864;8.550;2023-11-21T08:55:01;13.83;;;7.73;;
10088;SDS011;51898;49.864;8.550;2023-11-21T08:58:08;12.93;;;7.83;;
10088;SDS011;51898;49.864;8.550;2023-11-21T09:01:10;11.90;;;7.40;;
10088;SDS011;51898;49.864;8.550;2023-11-21T09:04:13;11.40;;;7.37;;
10088;SDS011;51898;49.864;8.550;2023-11-21T09:07:15;15.17;;;7.10;;
10088;SDS011;51898;49.864;8.550;2023-11-21T09:10:17;11.43;;;6.67;;
10088;SDS011;51898;49.864;8.550;2023-11-21T09:13:18;11.33;;;6.30;;
10088;SDS011;51898;49.864;8.550;2023-11-21T09:16:21;10.00;;;6.40;;
10088;SDS011;51898;49.864;8.550;2023-11-21T09:19:23;13.00;;;5.90;;
10088;SDS011;51898;49.864;8.550;2023-11-21T09:22:26;11.07;;;7.10;;
10088;SDS011;51898;49.864;8.550;2023-11-21T09:25:28;10.03;;;6.13;;
10088;SDS011;51898;49.864;8.550;2023-11-21T09:28:30;10.70;;;6.53;;
10088;SDS011;51898;49.864;8.550;2023-11-21T09:31:32;12.67;;;6.50;;
10088;SDS011;51898;49.864;8.550;2023-11-21T09:34:34;12.20;;;7.53;;
10088;SDS011;51898;49.864;8.550;2023-11-21T09:37:40;14.37;;;7.23;;
10088;SDS011;51898;49.864;8.550;2023-11-21T09:40:41;13.50;;;7.57;;
10088;SDS011;51898;49.864;8.550;2023-11-21T09:43:44;16.53;;;6.60;;
10088;SDS011;51898;49.864;8.550;2023-11-21T09:46:48;12.43;;;7.47;;
10088;SDS011;51898;49.864;8.550;2023-11-21T09:49:56;9.17;;;6.60;;
10088;SDS011;51898;49.864;8.550;2023-11-21T09:53:18;11.43;;;6.60;;
10088;SDS011;51898;49.864;8.550;2023-11-21T09:56:22;10.47;;;7.07;;
10088;SDS011;51898;49.864;8.550;2023-11-21T09:59:25;11.00;;;7.70;;
10088;SDS011;51898;49.864;8.550;2023-11-21T10:02:32;11.73;;;6.60;;
10088;SDS011;51898;49.864;8.550;2023-11-21T10:05:37;12.10;;;6.80;;
10088;SDS011;51898;49.864;8.550;2023-11-21T10:08:41;10.77;;;7.37;;
10088;SDS011;51898;49.864;8.550;2023-11-21T10:11:55;10.77;;;6.90;;
10088;SDS011;51898;49.864;8.550;2023-11-21T10:14:59;12.03;;;6.70;;
10088;SDS011;51898;49.864;8.550;2023-11-21T10:18:04;10.23;;;6.30;;
10088;SDS011;51898;49.864;8.550;2023-11-21T10:21:07;12.77;;;6.17;;
10088;SDS011;51898;49.864;8.550;2023-11-21T10:24:10;16.33;;;6.10;;
10088;SDS011;51898;49.864;8.550;2023-11-21T10:27:13;12.40;;;6.13;;
10088;SDS011;51898;49.864;8.550;2023-11-21T10:30:15;11.87;;;6.00;;
10088;SDS011;51898;49.864;8.550;2023-11-21T10:33:17;9.03;;;6.00;;
10088;SDS011;51898;49.864;8.550;2023-11-21T10:36:27;9.30;;;6.00;;
10088;SDS011;51898;49.864;8.550;2023-11-21T10:39:29;10.10;;;5.77;;
10088;SDS011;51898;49.864;8.550;2023-11-21T10:42:32;12.03;;;6.27;;
10088;SDS011;51898;49.864;8.550;2023-11-21T10:45:34;12.83;;;5.90;;
10088;SDS011;51898;49.864;8.550;2023-11-21T10:48:41;11.60;;;6.83;;
10088;SDS011;51898;49.864;8.550;2023-11-21T10:51:43;13.50;;;6.10;;
10088;SDS011;51898;49.864;8.550;2023-11-21T10:54:45;10.23;;;6.07;;
10088;SDS011;51898;49.864;8.550;2023-11-21T10:57:49;11.03;;;5.60;;
10088;SDS011;51898;49.864;8.550;2023-11-21T11:00:53;11.63;;;5.63;;
10088;SDS011;51898;49.864;8.550;2023-11-21T11:03:56;7.27;;;5.20;;
10088;SDS011;51898;49.864;8.550;2023-11-21T11:07:01;6.67;;;4.90;;
10088;SDS011;51898;49.864;8.550;2023-11-21T11:10:06;5.10;;;3.90;;
10088;SDS011;51898;49.864;8.550;2023-11-21T11:13:15;7.40;;;4.20;;
10088;SDS011;51898;49.864;8.550;2023-11-21T11:16:17;9.30;;;3.83;;
10088;SDS011;51898;49.864;8.550;2023-11-21T11:19:19;7.47;;;3.50;;
10088;SDS011;51898;49.864;8.550;2023-11-21T11:22:29;8.43;;;4.27;;
10088;SDS011;51898;49.864;8.550;2023-11-21T11:29:08;8.80;;;4.00;;
10088;SDS011;51898;49.864;8.550;2023-11-21T11:42:32;5.20;;;3.63;;
10088;SDS011;51898;49.864;8.550;2023-11-21T11:45:34;7.03;;;4.30;;
10088;SDS011;51898;49.864;8.550;2023-11-21T11:48:39;5.93;;;4.50;;
10088;SDS011;51898;49.864;8.550;2023-11-21T11:51:41;8.67;;;4.33;;
10088;SDS011;51898;49.864;8.550;2023-11-21T11:54:43;7.87;;;4.27;;
10088;SDS011;51898;49.864;8.550;2023-11-21T11:57:46;9.30;;;4.17;;
10088;SDS011;51898;49.864;8.550;2023-11-21T12:00:52;8.30;;;4.30;;
10088;SDS011;51898;49.864;8.550;2023-11-21T12:07:18;8.70;;;4.10;;
10088;SDS011;51898;49.864;8.550;2023-11-21T12:10:32;8.40;;;4.73;;
10088;SDS011;51898;49.864;8.550;2023-11-21T12:13:35;8.80;;;4.30;;
10088;SDS011;51898;49.864;8.550;2023-11-21T12:16:39;8.73;;;4.70;;
10088;SDS011;51898;49.864;8.550;2023-11-21T12:19:41;9.83;;;4.40;;
10088;SDS011;51898;49.864;8.550;2023-11-21T12:22:43;9.33;;;4.60;;
10088;SDS011;51898;49.864;8.550;2023-11-21T12:25:48;10.50;;;4.50;;
10088;SDS011;51898;49.864;8.550;2023-11-21T12:28:53;6.07;;;4.70;;
10088;SDS011;51898;49.864;8.550;2023-11-21T12:31:58;9.47;;;4.47;;
10088;SDS011;51898;49.864;8.550;2023-11-21T12:35:01;6.53;;;4.43;;
10088;SDS011;51898;49.864;8.550;2023-11-21T12:38:04;9.90;;;4.70;;
10088;SDS011;51898;49.864;8.550;2023-11-21T12:41:06;6.40;;;4.70;;
10088;SDS011;51898;49.864;8.550;2023-11-21T12:44:09;9.03;;;5.00;;
10088;SDS011;51898;49.864;8.550;2023-11-21T12:47:16;7.97;;;4.73;;
10088;SDS011;51898;49.864;8.550;2023-11-21T12:50:25;8.13;;;4.57;;
10088;SDS011;51898;49.864;8.550;2023-11-21T12:53:30;9.63;;;5.20;;
10088;SDS011;51898;49.864;8.550;2023-11-21T12:56:40;9.70;;;4.83;;
10088;SDS011;51898;49.864;8.550;2023-11-21T12:59:44;6.53;;;4.43;;
10088;SDS011;51898;49.864;8.550;2023-11-21T13:02:46;6.43;;;5.03;;
10088;SDS011;51898;49.864;8.550;2023-11-21T13:05:49;7.60;;;4.30;;
10088;SDS011;51898;49.864;8.550;2023-11-21T13:08:54;6.60;;;4.70;;
10088;SDS011;51898;49.864;8.550;2023-11-21T13:12:01;8.53;;;3.77;;
10088;SDS011;51898;49.864;8.550;2023-11-21T13:15:06;9.17;;;4.70;;
10088;SDS011;51898;49.864;8.550;2023-11-21T13:18:08;10.93;;;5.17;;
10088;SDS011;51898;49.864;8.550;2023-11-21T13:21:12;8.90;;;5.20;;
10088;SDS011;51898;49.864;8.550;2023-11-21T13:24:15;6.93;;;5.07;;
10088;SDS011;51898;49.864;8.550;2023-11-21T13:27:19;7.63;;;4.83;;
10088;SDS011;51898;49.864;8.550;2023-11-21T13:30:21;7.83;;;4.70;;
10088;SDS011;51898;49.864;8.550;2023-11-21T13:33:28;7.60;;;4.73;;
10088;SDS011;51898;49.864;8.550;2023-11-21T13:36:30;7.90;;;4.63;;
10088;SDS011;51898;49.864;8.550;2023-11-21T13:39:34;8.10;;;5.00;;
10088;SDS011;51898;49.864;8.550;2023-11-21T13:42:36;7.67;;;5.30;;
10088;SDS011;51898;49.864;8.550;2023-11-21T13:45:41;6.80;;;4.43;;
10088;SDS011;51898;49.864;8.550;2023-11-21T13:48:46;10.60;;;5.53;;
10088;SDS011;51898;49.864;8.550;2023-11-21T13:51:58;9.47;;;5.40;;
10088;SDS011;51898;49.864;8.550;2023-11-21T13:55:01;9.73;;;5.80;;
10088;SDS011;51898;49.864;8.550;2023-11-21T13:58:07;14.33;;;5.70;;
10088;SDS011;51898;49.864;8.550;2023-11-21T14:01:13;10.37;;;5.50;;
10088;SDS011;51898;49.864;8.550;2023-11-21T14:04:33;12.47;;;5.53;;
10088;SDS011;51898;49.864;8.550;2023-11-21T14:07:51;7.50;;;5.30;;
10088;SDS011;51898;49.864;8.550;2023-11-21T14:10:56;8.60;;;5.10;;
10088;SDS011;51898;49.864;8.550;2023-11-21T14:14:00;9.97;;;5.40;;
10088;SDS011;51898;49.864;8.550;2023-11-21T14:17:03;10.17;;;5.83;;
10088;SDS011;51898;49.864;8.550;2023-11-21T14:20:08;9.77;;;5.27;;
10088;SDS011;51898;49.864;8.550;2023-11-21T14:23:17;9.97;;;4.63;;
10088;SDS011;51898;49.864;8.550;2023-11-21T14:26:19;10.13;;;5.63;;
10088;SDS011;51898;49.864;8.550;2023-11-21T14:29:21;6.20;;;4.60;;
10088;SDS011;51898;49.864;8.550;2023-11-21T14:32:24;9.00;;;4.67;;
10088;SDS011;51898;49.864;8.550;2023-11-21T14:35:27;9.23;;;5.40;;
10088;SDS011;51898;49.864;8.550;2023-11-21T14:38:31;7.80;;;4.70;;
10088;SDS011;51898;49.864;8.550;2023-11-21T14:41:34;12.80;;;6.43;;
10088;SDS011;51898;49.864;8.550;2023-11-21T14:44:38;7.40;;;5.40;;
10088;SDS011;51898;49.864;8.550;2023-11-21T14:47:42;8.07;;;5.17;;
10088;SDS011;51898;49.864;8.550;2023-11-21T14:50:50;9.60;;;5.30;;
10088;SDS011;51898;49.864;8.550;2023-11-21T14:54:14;6.60;;;4.63;;
10088;SDS011;51898;49.864;8.550;2023-11-21T14:57:24;6.90;;;4.30;;
10088;SDS011;51898;49.864;8.550;2023-11-21T15:00:28;6.77;;;4.67;;
10088;SDS011;51898;49.864;8.550;2023-11-21T15:03:36;10.17;;;5.20;;
10088;SDS011;51898;49.864;8.550;2023-11-21T15:06:51;13.23;;;5.90;;
10088;SDS011;51898;49.864;8.550;2023-11-21T15:09:55;8.93;;;5.23;;
10088;SDS011;51898;49.864;8.550;2023-11-21T15:12:56;12.27;;;5.43;;
10088;SDS011;51898;49.864;8.550;2023-11-21T15:15:58;9.20;;;4.77;;
10088;SDS011;51898;49.864;8.550;2023-11-21T15:19:08;6.73;;;4.50;;
10088;SDS011;51898;49.864;8.550;2023-11-21T15:22:19;8.00;;;4.97;;
10088;SDS011;51898;49.864;8.550;2023-11-21T15:25:21;9.90;;;5.10;;
10088;SDS011;51898;49.864;8.550;2023-11-21T15:28:23;7.73;;;4.97;;
10088;SDS011;51898;49.864;8.550;2023-11-21T15:31:25;7.73;;;4.87;;
10088;SDS011;51898;49.864;8.550;2023-11-21T15:34:27;8.30;;;5.47;;
10088;SDS011;51898;49.864;8.550;2023-11-21T15:37:31;13.63;;;5.10;;
10088;SDS011;51898;49.864;8.550;2023-11-21T15:40:32;11.97;;;5.73;;
10088;SDS011;51898;49.864;8.550;2023-11-21T15:43:34;7.83;;;5.30;;
10088;SDS011;51898;49.864;8.550;2023-11-21T15:46:36;17.07;;;5.70;;
10088;SDS011;51898;49.864;8.550;2023-11-21T15:49:40;10.17;;;6.20;;
10088;SDS011;51898;49.864;8.550;2023-11-21T15:52:42;10.23;;;6.50;;
10088;SDS011;51898;49.864;8.550;2023-11-21T15:55:58;11.03;;;4.63;;
10088;SDS011;51898;49.864;8.550;2023-11-21T15:59:00;7.27;;;5.17;;
10088;SDS011;51898;49.864;8.550;2023-11-21T16:02:02;8.97;;;4.87;;
10088;SDS011;51898;49.864;8.550;2023-11-21T16:05:07;11.70;;;4.80;;
10088;SDS011;51898;49.864;8.550;2023-11-21T16:08:09;9.70;;;5.10;;
10088;SDS011;51898;49.864;8.550;2023-11-21T16:11:11;12.30;;;4.67;;
10088;SDS011;51898;49.864;8.550;2023-11-21T16:14:12;7.70;;;5.03;;
10088;SDS011;51898;49.864;8.550;2023-11-21T16:17:14;9.93;;;5.90;;
10088;SDS011;51898;49.864;8.550;2023-11-21T16:20:18;9.77;;;5.43;;
10088;SDS011;51898;49.864;8.550;2023-11-21T16:23:20;10.57;;;5.73;;
10088;SDS011;51898;49.864;8.550;2023-11-21T16:26:22;8.33;;;5.43;;
10088;SDS011;51898;49.864;8.550;2023-11-21T16:29:24;6.10;;;5.07;;
10088;SDS011;51898;49.864;8.550;2023-11-21T16:32:25;8.20;;;5.13;;
10088;SDS011;51898;49.864;8.550;2023-11-21T16:35:28;7.70;;;4.80;;
10088;SDS011;51898;49.864;8.550;2023-11-21T16:38:30;8.03;;;5.40;;
10088;SDS011;51898;49.864;8.550;2023-11-21T16:41:32;10.50;;;5.30;;
10088;SDS011;51898;49.864;8.550;2023-11-21T16:44:34;7.30;;;4.80;;
10088;SDS011;51898;49.864;8.550;2023-11-21T16:47:42;8.00;;;4.80;;
10088;SDS011;51898;49.864;8.550;2023-11-21T16:50:44;11.30;;;6.40;;
10088;SDS011;51898;49.864;8.550;2023-11-21T16:53:46;11.50;;;5.60;;
10088;SDS011;51898;49.864;8.550;2023-11-21T16:56:47;6.87;;;5.17;;
10088;SDS011;51898;49.864;8.550;2023-11-21T16:59:49;8.60;;;5.87;;
10088;SDS011;51898;49.864;8.550;2023-11-21T17:02:51;5.97;;;4.33;;
10088;SDS011;51898;49.864;8.550;2023-11-21T17:05:54;7.63;;;5.03;;
10088;SDS011;51898;49.864;8.550;2023-11-21T17:08:56;8.07;;;4.90;;
10088;SDS011;51898;49.864;8.550;2023-11-21T17:11:59;9.83;;;6.00;;
10088;SDS011;51898;49.864;8.550;2023-11-21T17:15:03;9.77;;;5.97;;
10088;SDS011;51898;49.864;8.550;2023-11-21T17:18:05;9.17;;;5.80;;
10088;SDS011;51898;49.864;8.550;2023-11-21T17:21:07;8.63;;;6.33;;
10088;SDS011;51898;49.864;8.550;2023-11-21T17:24:22;9.33;;;6.27;;
10088;SDS011;51898;49.864;8.550;2023-11-21T17:27:23;9.50;;;6.47;;
10088;SDS011;51898;49.864;8.550;2023-11-21T17:30:25;17.43;;;7.30;;
10088;SDS011;51898;49.864;8.550;2023-11-21T17:33:28;10.10;;;6.83;;
10088;SDS011;51898;49.864;8.550;2023-11-21T17:36:30;11.83;;;6.77;;
10088;SDS011;51898;49.864;8.550;2023-11-21T17:39:32;13.37;;;8.27;;
10088;SDS011;51898;49.864;8.550;2023-11-21T17:42:34;12.23;;;8.00;;
10088;SDS011;51898;49.864;8.550;2023-11-21T17:45:35;16.07;;;8.67;;
10088;SDS011;51898;49.864;8.550;2023-11-21T17:48:37;14.07;;;7.37;;
10088;SDS011;51898;49.864;8.550;2023-11-21T17:51:41;16.10;;;8.17;;
10088;SDS011;51898;49.864;8.550;2023-11-21T17:54:44;20.80;;;10.80;;
10088;SDS011;51898;49.864;8.550;2023-11-21T17:57:46;31.83;;;17.27;;
10088;SDS011;51898;49.864;8.550;2023-11-21T18:00:48;19.10;;;10.27;;
10088;SDS011;51898;49.864;8.550;2023-11-21T18:03:50;16.53;;;9.00;;
10088;SDS011;51898;49.864;8.550;2023-11-21T18:06:51;19.53;;;10.57;;
10088;SDS011;51898;49.864;8.550;2023-11-21T18:09:55;19.00;;;11.07;;
10088;SDS011;51898;49.864;8.550;2023-11-21T18:12:56;19.87;;;9.63;;
10088;SDS011;51898;49.864;8.550;2023-11-21T18:15:58;20.77;;;10.40;;
10088;SDS011;51898;49.864;8.550;2023-11-21T18:19:00;15.93;;;9.43;;
10088;SDS011;51898;49.864;8.550;2023-11-21T18:22:02;16.23;;;10.10;;
10088;SDS011;51898;49.864;8.550;2023-11-21T18:25:04;19.00;;;10.77;;
10088;SDS011;51898;49.864;8.550;2023-11-21T18:28:06;17.33;;;10.13;;
10088;SDS011;51898;49.864;8.550;2023-11-21T18:31:09;15.50;;;9.60;;